Time;durP1;ratioP1;P1;durP2;ratioP2;P2;SDS_P1;SDS_P2;PMS_P1;PMS_P2;Temp;Humidity;BMP_temperature;BMP_pressure;BME280_temperature;BME280_humidity;BME280_pressure;Samples;Min_cycle;Max_cycle;Signal;HPM_P1;HPM_P2
2022/12/05 00:00:32;;;;;;;31.30;18.88;;;3.80;99.90;;;;;;5049143;28;20087;-53
2022/12/05 00:02:58;;;;;;;31.23;17.90;;;3.80;99.90;;;;;;5048960;28;20044;-54
2022/12/05 00:05:23;;;;;;;32.42;18.67;;;3.80;99.90;;;;;;5048558;28;20527;-53
2022/12/05 00:07:49;;;;;;;35.47;19.15;;;3.80;99.90;;;;;;5047772;28;20463;-53
2022/12/05 00:10:14;;;;;;;32.22;17.02;;;3.80;99.90;;;;;;5048783;28;20053;-53
2022/12/05 00:12:40;;;;;;;33.33;18.98;;;4.40;99.90;;;;;;5048997;28;20132;-53
2022/12/05 00:15:11;;;;;;;30.10;18.08;;;3.80;99.90;;;;;;5048627;28;20033;-54
2022/12/05 00:17:38;;;;;;;32.58;19.05;;;3.80;99.90;;;;;;5048817;28;20095;-52
2022/12/05 00:20:05;;;;;;;31.67;19.10;;;3.60;99.90;;;;;;5048438;28;20045;-54
2022/12/05 00:22:30;;;;;;;32.95;18.65;;;3.80;99.90;;;;;;5048663;28;20053;-54
2022/12/05 00:24:56;;;;;;;34.90;19.27;;;3.80;99.90;;;;;;5048882;28;20048;-54
2022/12/05 00:27:21;;;;;;;32.20;18.50;;;4.10;99.90;;;;;;5048761;28;20049;-53
2022/12/05 00:29:47;;;;;;;32.53;18.50;;;3.80;99.90;;;;;;5048253;28;20059;-53
2022/12/05 00:32:13;;;;;;;31.25;17.40;;;3.80;99.90;;;;;;5048512;28;20053;-52
2022/12/05 00:34:38;;;;;;;33.95;18.80;;;3.90;99.90;;;;;;5048276;28;20136;-54
2022/12/05 00:37:04;;;;;;;34.42;19.15;;;3.90;99.90;;;;;;5048271;28;20041;-54
2022/12/05 00:39:30;;;;;;;35.15;19.40;;;3.90;99.90;;;;;;5048097;28;20047;-52
2022/12/05 00:41:55;;;;;;;32.78;18.70;;;3.90;99.90;;;;;;5048270;28;20742;-53
2022/12/05 00:44:21;;;;;;;33.00;19.20;;;3.90;99.90;;;;;;5047934;28;20544;-53
2022/12/05 00:46:47;;;;;;;35.10;19.75;;;4.00;99.90;;;;;;5047784;28;20037;-54
2022/12/05 00:49:12;;;;;;;32.63;18.98;;;4.00;99.90;;;;;;5047678;28;20045;-54
2022/12/05 00:51:40;;;;;;;32.30;18.17;;;4.00;99.90;;;;;;5030431;28;20073;-54
2022/12/05 00:54:09;;;;;;;37.60;20.23;;;4.00;99.90;;;;;;5048186;28;20049;-54
2022/12/05 00:56:35;;;;;;;32.72;19.15;;;4.00;99.90;;;;;;5047744;28;20575;-54
2022/12/05 00:59:02;;;;;;;34.38;20.10;;;4.00;99.90;;;;;;5047715;28;20132;-55
2022/12/05 01:01:36;;;;;;;35.33;19.33;;;4.10;99.90;;;;;;5047606;28;20048;-55
2022/12/05 01:04:06;;;;;;;33.17;19.10;;;4.10;99.90;;;;;;5047902;28;20048;-53
2022/12/05 01:06:32;;;;;;;33.22;19.63;;;4.10;99.90;;;;;;5047618;28;20145;-52
2022/12/05 01:08:58;;;;;;;35.35;19.65;;;4.10;99.90;;;;;;5047765;28;20075;-55
2022/12/05 01:11:25;;;;;;;31.30;19.58;;;4.10;99.90;;;;;;5047571;28;20044;-54
2022/12/05 01:13:51;;;;;;;38.35;21.23;;;4.80;99.90;;;;;;5047419;28;20489;-54
2022/12/05 01:16:26;;;;;;;41.97;19.88;;;4.10;99.90;;;;;;5047205;28;20047;-55
2022/12/05 01:18:52;;;;;;;39.13;20.52;;;4.20;99.90;;;;;;5047088;28;20076;-54
2022/12/05 01:21:18;;;;;;;41.40;21.15;;;4.10;99.90;;;;;;5047262;28;20463;-54
2022/12/05 01:23:44;;;;;;;37.08;21.02;;;4.00;99.90;;;;;;5047916;28;20045;-54
2022/12/05 01:26:13;;;;;;;42.13;22.75;;;4.20;99.90;;;;;;5047277;28;20063;-54
2022/12/05 01:28:39;;;;;;;45.55;24.20;;;4.20;99.90;;;;;;5028887;28;20068;-52
2022/12/05 01:31:07;;;;;;;48.75;24.88;;;4.20;99.90;;;;;;5047286;28;20053;-54
2022/12/05 01:33:34;;;;;;;48.83;25.48;;;4.20;99.90;;;;;;5047365;28;20044;-54
2022/12/05 01:36:01;;;;;;;50.00;26.88;;;4.20;99.90;;;;;;5047274;28;20137;-54
2022/12/05 01:38:27;;;;;;;46.63;26.45;;;4.30;99.90;;;;;;5047144;28;20869;-55
2022/12/05 01:41:04;;;;;;;45.40;26.05;;;4.30;99.90;;;;;;5047237;28;20041;-55
2022/12/05 01:43:30;;;;;;;43.95;23.98;;;4.30;99.90;;;;;;5047089;28;20124;-54
2022/12/05 01:45:56;;;;;;;43.90;23.83;;;4.30;99.90;;;;;;5047181;28;20049;-55
2022/12/05 01:48:28;;;;;;;41.47;24.33;;;4.30;99.90;;;;;;5046870;28;20040;-55
2022/12/05 01:50:54;;;;;;;46.88;24.15;;;4.30;99.90;;;;;;5047121;28;20054;-54
2022/12/05 01:53:21;;;;;;;43.83;24.55;;;4.40;99.90;;;;;;5047042;28;20044;-54
2022/12/05 01:55:49;;;;;;;49.75;26.30;;;4.30;99.90;;;;;;5046982;28;20436;-54
2022/12/05 01:58:16;;;;;;;42.55;23.23;;;4.40;99.90;;;;;;5046431;28;20493;-59
2022/12/05 02:00:43;;;;;;;42.45;23.75;;;4.40;99.90;;;;;;5046566;28;20387;-54
2022/12/05 02:03:13;;;;;;;42.03;22.58;;;4.20;99.90;;;;;;5046684;28;20792;-53
2022/12/05 02:05:40;;;;;;;43.78;23.23;;;4.40;99.90;;;;;;5046443;28;20517;-54
2022/12/05 02:08:08;;;;;;;42.00;23.13;;;4.00;99.90;;;;;;5047020;28;20076;-54
2022/12/05 02:10:56;;;;;;;42.83;23.38;;;4.40;99.90;;;;;;5046673;28;20037;-54
2022/12/05 02:13:34;;;;;;;43.28;23.20;;;4.40;99.90;;;;;;5045895;28;20517;-54
2022/12/05 02:16:19;;;;;;;43.50;23.75;;;5.00;99.90;;;;;;5046459;28;20120;-53
2022/12/05 02:19:03;;;;;;;42.88;22.55;;;4.40;99.90;;;;;;5046274;28;20060;-55
2022/12/05 02:21:32;;;;;;;44.03;23.80;;;4.50;99.90;;;;;;5046237;28;20048;-53
2022/12/05 02:24:19;;;;;;;44.58;23.88;;;4.40;99.90;;;;;;5046406;28;20041;-54
2022/12/05 02:27:06;;;;;;;50.63;24.60;;;4.50;99.90;;;;;;5046326;28;20045;-54
2022/12/05 02:29:43;;;;;;;44.13;22.88;;;4.50;99.90;;;;;;5046422;28;20049;-53
2022/12/05 02:32:23;;;;;;;43.65;22.85;;;4.50;99.90;;;;;;5050442;28;20162;-54
2022/12/05 02:35:07;;;;;;;46.38;23.67;;;4.50;99.90;;;;;;5050265;28;20045;-55
2022/12/05 02:37:45;;;;;;;54.05;25.13;;;4.50;99.90;;;;;;5049824;28;20159;-54
2022/12/05 02:40:46;;;;;;;50.75;25.05;;;4.40;99.90;;;;;;5050308;28;20099;-55
2022/12/05 02:43:25;;;;;;;50.10;24.30;;;4.40;99.90;;;;;;5050791;28;20080;-55
2022/12/05 02:45:55;;;;;;;53.55;24.63;;;4.90;99.90;;;;;;5050030;28;20045;-55
2022/12/05 02:48:26;;;;;;;63.92;26.20;;;4.40;99.90;;;;;;5050269;28;20094;-54
2022/12/05 02:50:55;;;;;;;48.25;23.45;;;4.40;99.90;;;;;;5050317;28;20037;-54
2022/12/05 02:53:24;;;;;;;61.90;25.38;;;4.30;99.90;;;;;;5049232;28;20041;-54
2022/12/05 02:55:50;;;;;;;62.92;26.23;;;4.30;99.90;;;;;;5048465;28;20044;-55
2022/12/05 02:58:26;;;;;;;64.38;26.33;;;4.30;99.90;;;;;;5049832;28;20147;-54
2022/12/05 03:00:59;;;;;;;66.38;26.02;;;4.30;99.90;;;;;;5049235;28;20448;-55
2022/12/05 03:03:25;;;;;;;79.38;27.13;;;4.30;99.90;;;;;;5049928;28;20167;-54
2022/12/05 03:06:01;;;;;;;72.07;26.45;;;4.30;99.90;;;;;;5049566;28;20036;-55
2022/12/05 03:08:38;;;;;;;73.30;26.60;;;4.30;99.90;;;;;;5050425;28;20547;-54
2022/12/05 03:11:05;;;;;;;65.20;26.38;;;4.30;99.90;;;;;;5050307;28;20037;-55
2022/12/05 03:13:40;;;;;;;64.88;25.02;;;4.30;99.90;;;;;;5050308;28;20037;-55
2022/12/05 03:16:21;;;;;;;63.33;24.20;;;4.30;99.90;;;;;;5049806;28;20045;-54
2022/12/05 03:18:55;;;;;;;62.50;24.33;;;4.30;99.90;;;;;;5049837;28;20043;-54
2022/12/05 03:21:34;;;;;;;56.22;21.20;;;4.70;99.90;;;;;;5048590;28;20529;-54
2022/12/05 03:24:12;;;;;;;53.22;20.67;;;4.30;99.90;;;;;;5049701;28;20041;-55
2022/12/05 03:27:06;;;;;;;56.42;22.02;;;4.40;99.90;;;;;;5049751;28;20048;-54
2022/12/05 03:29:52;;;;;;;55.45;20.13;;;4.40;99.90;;;;;;5049509;28;20053;-53
2022/12/05 03:32:29;;;;;;;46.85;20.25;;;4.40;99.90;;;;;;5050145;28;20587;-53
2022/12/05 03:35:01;;;;;;;40.17;18.90;;;4.40;99.90;;;;;;5049587;28;20391;-55
2022/12/05 03:37:48;;;;;;;43.93;20.23;;;4.40;99.90;;;;;;5049644;28;20479;-54
2022/12/05 03:41:01;;;;;;;42.20;18.95;;;4.50;99.90;;;;;;5049776;28;20033;-53
2022/12/05 03:43:51;;;;;;;44.92;19.83;;;4.40;99.90;;;;;;5049271;28;20402;-54
2022/12/05 03:46:51;;;;;;;47.22;20.42;;;4.50;99.90;;;;;;5049384;28;20083;-55
2022/12/05 03:49:35;;;;;;;43.92;19.30;;;4.50;99.90;;;;;;5049285;28;20131;-54
2022/12/05 03:52:24;;;;;;;42.42;19.20;;;4.50;99.90;;;;;;5049227;28;20394;-54
2022/12/05 03:54:55;;;;;;;49.28;19.75;;;4.50;99.90;;;;;;5040428;28;20118;-54
2022/12/05 03:57:52;;;;;;;44.17;21.45;;;4.50;99.90;;;;;;5049181;28;20037;-54
2022/12/05 04:00:23;;;;;;;49.53;21.70;;;4.50;99.90;;;;;;5040608;28;20120;-55
2022/12/05 04:03:04;;;;;;;45.83;21.23;;;4.50;99.90;;;;;;5048853;28;20037;-54
2022/12/05 04:05:39;;;;;;;44.25;22.02;;;4.40;99.90;;;;;;5048846;28;20498;-54
2022/12/05 04:08:17;;;;;;;45.35;20.08;;;4.50;99.90;;;;;;5049369;28;20044;-54
2022/12/05 04:10:50;;;;;;;39.42;19.27;;;4.50;99.90;;;;;;5049048;28;20063;-53
2022/12/05 04:13:28;;;;;;;43.05;20.65;;;4.50;99.90;;;;;;5048918;28;20433;-54
2022/12/05 04:18:52;;;;;;;44.55;19.85;;;4.50;99.90;;;;;;5048713;28;20387;-55
2022/12/05 04:21:38;;;;;;;44.70;19.63;;;4.50;99.90;;;;;;5049152;28;20076;-53
2022/12/05 04:27:05;;;;;;;38.55;16.95;;;4.50;99.90;;;;;;5048620;28;20055;-53
2022/12/05 04:29:38;;;;;;;30.08;14.85;;;4.50;99.90;;;;;;5048616;28;20699;-53
2022/12/05 04:32:09;;;;;;;40.00;16.45;;;4.50;99.90;;;;;;5049297;28;20048;-54
2022/12/05 04:34:36;;;;;;;28.58;14.65;;;4.50;99.90;;;;;;5049153;28;20040;-54
2022/12/05 04:37:12;;;;;;;30.17;14.60;;;4.50;99.90;;;;;;5048235;28;20518;-54
2022/12/05 04:39:55;;;;;;;31.25;12.98;;;4.50;99.90;;;;;;5048752;28;20045;-54
2022/12/05 04:42:25;;;;;;;21.98;11.68;;;4.50;99.90;;;;;;5048464;28;20044;-55
2022/12/05 04:44:59;;;;;;;25.98;12.20;;;4.50;99.90;;;;;;5048055;28;20131;-54
2022/12/05 04:47:30;;;;;;;25.08;11.48;;;4.60;99.90;;;;;;5048449;28;20102;-53
2022/12/05 04:49:58;;;;;;;22.88;11.40;;;5.20;99.90;;;;;;5048142;28;20129;-53
2022/12/05 04:52:24;;;;;;;23.02;11.70;;;4.50;99.90;;;;;;5048100;28;20052;-54
2022/12/05 04:55:07;;;;;;;24.40;11.55;;;4.50;99.90;;;;;;5047930;28;20041;-53
2022/12/05 04:57:41;;;;;;;24.88;10.90;;;4.50;99.90;;;;;;5047925;28;20091;-53
2022/12/05 05:00:07;;;;;;;20.08;10.57;;;4.60;99.90;;;;;;5047437;28;20040;-55
2022/12/05 05:02:52;;;;;;;22.98;11.50;;;4.60;99.90;;;;;;5047740;28;20837;-53
2022/12/05 05:05:19;;;;;;;20.20;10.00;;;4.60;99.90;;;;;;5047448;28;20052;-53
2022/12/05 05:07:51;;;;;;;18.88;10.07;;;4.60;99.90;;;;;;5047354;28;20049;-53
2022/12/05 05:10:43;;;;;;;18.80;9.95;;;4.60;99.90;;;;;;5048038;28;20498;-52
2022/12/05 05:13:08;;;;;;;21.90;11.15;;;4.60;99.90;;;;;;5029434;28;20930;-53
2022/12/05 05:15:34;;;;;;;22.42;10.77;;;4.60;99.90;;;;;;5047423;28;20048;-53
2022/12/05 05:17:59;;;;;;;21.90;11.25;;;4.60;99.90;;;;;;5046756;28;20090;-54
2022/12/05 05:20:26;;;;;;;23.95;11.25;;;4.60;99.90;;;;;;5047113;28;20045;-54
2022/12/05 05:22:56;;;;;;;18.05;10.90;;;4.60;99.90;;;;;;5047356;28;20049;-54
2022/12/05 05:25:23;;;;;;;19.90;10.88;;;4.60;99.90;;;;;;5030109;28;20076;-54
2022/12/05 05:27:51;;;;;;;23.27;11.63;;;4.30;99.90;;;;;;5047899;28;20049;-53
2022/12/05 05:30:18;;;;;;;20.40;10.38;;;4.60;99.90;;;;;;5047470;28;20045;-52
2022/12/05 05:32:43;;;;;;;21.20;11.77;;;4.60;99.90;;;;;;5047831;28;20051;-54
2022/12/05 05:35:10;;;;;;;18.23;10.55;;;4.60;99.90;;;;;;5047979;28;20041;-53
2022/12/05 05:37:36;;;;;;;28.20;11.60;;;4.60;99.90;;;;;;5047833;28;20102;-53
2022/12/05 05:40:03;;;;;;;20.90;11.13;;;4.60;99.90;;;;;;5047348;28;20072;-54
2022/12/05 05:42:28;;;;;;;20.30;11.93;;;4.60;99.90;;;;;;5047029;28;20095;-54
2022/12/05 05:44:54;;;;;;;20.42;10.63;;;4.60;99.90;;;;;;5046966;28;20368;-53
2022/12/05 05:47:20;;;;;;;22.67;11.88;;;4.60;99.90;;;;;;5046880;28;20079;-54
2022/12/05 05:49:45;;;;;;;23.80;11.55;;;4.60;99.90;;;;;;5047313;28;20048;-54
2022/12/05 05:52:11;;;;;;;25.17;11.32;;;4.60;99.90;;;;;;5047101;28;20041;-54
2022/12/05 05:54:37;;;;;;;19.67;9.52;;;4.60;99.90;;;;;;5047173;28;20041;-54
2022/12/05 05:57:02;;;;;;;19.13;9.73;;;4.60;99.90;;;;;;5046638;28;20037;-55
2022/12/05 05:59:28;;;;;;;21.50;9.93;;;4.60;99.90;;;;;;5028817;28;20060;-54
2022/12/05 06:01:53;;;;;;;20.67;10.18;;;4.60;99.90;;;;;;5046602;28;20921;-54
2022/12/05 06:04:19;;;;;;;20.73;9.75;;;4.60;99.90;;;;;;5045895;28;20521;-53
2022/12/05 06:06:45;;;;;;;19.80;9.90;;;4.70;99.90;;;;;;5046698;28;20466;-54
2022/12/05 06:09:10;;;;;;;22.10;9.73;;;4.60;99.90;;;;;;5046537;28;20049;-53
2022/12/05 06:11:36;;;;;;;20.00;8.77;;;4.60;99.90;;;;;;5046374;28;20047;-53
2022/12/05 06:14:02;;;;;;;18.38;8.35;;;4.60;99.90;;;;;;5046242;28;20037;-54
2022/12/05 06:16:29;;;;;;;25.52;9.13;;;4.60;99.90;;;;;;5046536;28;20120;-54
2022/12/05 06:18:55;;;;;;;17.58;9.32;;;4.60;99.90;;;;;;5046759;28;20099;-54
2022/12/05 06:21:21;;;;;;;20.88;9.10;;;4.70;99.90;;;;;;5045079;28;20111;-53
2022/12/05 06:23:47;;;;;;;20.63;8.60;;;4.70;99.90;;;;;;5046769;28;20049;-54
2022/12/05 06:26:17;;;;;;;18.92;9.25;;;4.70;99.90;;;;;;5046700;28;20387;-53
2022/12/05 06:28:43;;;;;;;15.80;8.73;;;4.70;99.90;;;;;;5046614;28;20089;-52
2022/12/05 06:31:20;;;;;;;20.35;9.35;;;4.70;99.90;;;;;;5046341;28;20556;-53
2022/12/05 06:33:46;;;;;;;19.30;9.48;;;4.60;99.90;;;;;;5046799;28;20063;-53
2022/12/05 06:36:14;;;;;;;26.73;9.90;;;4.70;99.90;;;;;;5046577;28;20037;-53
2022/12/05 06:38:40;;;;;;;31.67;12.13;;;4.70;99.90;;;;;;5046435;28;20796;-54
2022/12/05 06:41:18;;;;;;;22.83;10.07;;;4.70;99.90;;;;;;5046088;28;20052;-54
2022/12/05 06:43:44;;;;;;;32.20;10.65;;;4.70;99.90;;;;;;5046336;28;20041;-53
2022/12/05 06:46:11;;;;;;;31.52;11.05;;;4.70;99.90;;;;;;5046403;28;20055;-54
2022/12/05 06:48:37;;;;;;;28.75;10.90;;;4.70;99.90;;;;;;5046538;28;20403;-54
2022/12/05 06:51:03;;;;;;;31.42;11.15;;;4.70;99.90;;;;;;5046473;28;20048;-53
2022/12/05 06:53:29;;;;;;;34.53;11.80;;;4.70;99.90;;;;;;5046237;28;20629;-53
2022/12/05 06:55:59;;;;;;;23.98;10.00;;;4.70;99.90;;;;;;5046514;28;20128;-54
2022/12/05 06:58:25;;;;;;;30.00;11.13;;;4.70;99.90;;;;;;5046067;28;20103;-54
2022/12/05 07:03:36;;;;;;;23.70;10.73;;;4.70;99.90;;;;;;5046426;28;20064;-53
2022/12/05 07:06:03;;;;;;;18.67;10.57;;;4.70;99.90;;;;;;5046421;28;20033;-54
2022/12/05 07:08:29;;;;;;;24.40;10.35;;;4.70;99.90;;;;;;5046394;28;20052;-53
2022/12/05 07:10:54;;;;;;;25.77;10.25;;;4.60;99.90;;;;;;5046791;28;20033;-54
2022/12/05 07:13:21;;;;;;;19.13;10.30;;;5.60;99.90;;;;;;5046233;28;20135;-54
2022/12/05 07:15:47;;;;;;;19.60;9.80;;;4.70;99.90;;;;;;5047269;28;20045;-54
2022/12/05 07:18:14;;;;;;;18.60;10.90;;;4.60;99.90;;;;;;5049754;28;20048;-53
2022/12/05 07:20:39;;;;;;;24.08;10.63;;;4.70;99.90;;;;;;5050353;28;20061;-53
2022/12/05 07:23:05;;;;;;;27.08;11.48;;;4.40;99.90;;;;;;5050003;28;20044;-54
2022/12/05 07:25:31;;;;;;;32.95;11.98;;;4.70;99.90;;;;;;5048376;28;20379;-54
2022/12/05 07:27:57;;;;;;;20.70;10.73;;;4.70;99.90;;;;;;5050260;28;20076;-52
2022/12/05 07:30:23;;;;;;;22.80;11.45;;;4.70;99.90;;;;;;5049438;28;20092;-52
2022/12/05 07:32:49;;;;;;;23.35;10.55;;;4.70;99.90;;;;;;5050008;28;20154;-54
2022/12/05 07:35:15;;;;;;;27.80;10.93;;;4.70;99.90;;;;;;5049831;28;20123;-54
2022/12/05 07:37:40;;;;;;;25.80;11.70;;;4.70;99.90;;;;;;5049781;28;20116;-54
2022/12/05 07:40:06;;;;;;;24.30;11.07;;;5.60;99.90;;;;;;5049113;28;20045;-54
2022/12/05 07:42:32;;;;;;;24.02;11.20;;;4.70;99.90;;;;;;5048802;28;20047;-53
2022/12/05 07:44:58;;;;;;;23.83;10.85;;;4.70;99.90;;;;;;5049170;28;20045;-53
2022/12/05 07:47:23;;;;;;;26.35;11.60;;;4.60;99.90;;;;;;5049116;28;20086;-54
2022/12/05 07:49:49;;;;;;;22.67;11.50;;;4.70;99.90;;;;;;5049346;28;20710;-53
2022/12/05 07:52:15;;;;;;;24.17;10.63;;;4.70;99.90;;;;;;5049196;28;20041;-53
2022/12/05 07:54:40;;;;;;;33.92;12.73;;;4.60;99.90;;;;;;5049110;28;20223;-53
2022/12/05 07:57:06;;;;;;;26.77;11.48;;;4.70;99.90;;;;;;5030627;28;20124;-54
2022/12/05 07:59:32;;;;;;;25.67;11.68;;;4.70;99.90;;;;;;5048699;28;20045;-54
2022/12/05 08:01:57;;;;;;;34.53;12.43;;;4.60;99.90;;;;;;5048738;28;20064;-54
2022/12/05 08:04:23;;;;;;;33.55;12.25;;;4.60;99.90;;;;;;5048852;28;20041;-53
2022/12/05 08:06:48;;;;;;;30.17;12.73;;;4.70;99.90;;;;;;5014472;28;20045;-53
2022/12/05 08:09:14;;;;;;;32.97;12.60;;;4.60;99.90;;;;;;5048716;28;20063;-54
2022/12/05 08:11:40;;;;;;;32.17;12.73;;;4.70;99.90;;;;;;5048937;28;20124;-54
2022/12/05 08:14:06;;;;;;;26.90;12.68;;;5.60;99.90;;;;;;5048439;28;20483;-54
2022/12/05 08:16:32;;;;;;;33.15;12.93;;;4.70;99.90;;;;;;5048379;28;20036;-53
2022/12/05 08:19:00;;;;;;;29.67;12.00;;;5.30;99.90;;;;;;5048481;28;20124;-52
2022/12/05 08:21:26;;;;;;;24.65;11.00;;;4.70;99.90;;;;;;5048316;28;20084;-52
2022/12/05 08:23:52;;;;;;;21.90;11.70;;;4.70;99.90;;;;;;5048384;28;20060;-53
2022/12/05 08:26:23;;;;;;;33.55;11.73;;;4.70;99.90;;;;;;5048680;28;20080;-54
2022/12/05 08:29:03;;;;;;;27.15;10.85;;;4.70;99.90;;;;;;5029490;28;20057;-53
2022/12/05 08:31:30;;;;;;;23.90;10.98;;;4.70;99.90;;;;;;5048183;28;20055;-53
2022/12/05 08:33:58;;;;;;;28.77;12.60;;;4.70;99.90;;;;;;5047766;28;20119;-53
2022/12/05 08:36:23;;;;;;;22.63;10.32;;;4.70;99.90;;;;;;5047196;28;20721;-53
2022/12/05 08:38:54;;;;;;;25.08;11.25;;;4.70;99.90;;;;;;5047165;28;20045;-53
2022/12/05 08:41:20;;;;;;;20.73;10.23;;;4.60;99.90;;;;;;5048187;28;20045;-54
2022/12/05 08:43:45;;;;;;;24.92;11.02;;;4.70;99.90;;;;;;5047302;28;20755;-53
2022/12/05 08:46:11;;;;;;;23.25;11.23;;;4.70;99.90;;;;;;5047543;28;20091;-55
2022/12/05 08:48:38;;;;;;;26.02;11.27;;;4.70;99.90;;;;;;5047136;28;20489;-54
2022/12/05 08:51:09;;;;;;;28.48;10.35;;;4.60;99.90;;;;;;5047748;28;20128;-54
2022/12/05 08:53:35;;;;;;;20.83;10.90;;;4.60;99.90;;;;;;5047435;28;20044;-54
2022/12/05 08:56:06;;;;;;;21.38;10.98;;;4.60;99.90;;;;;;5047751;28;20032;-54
2022/12/05 08:58:32;;;;;;;23.70;10.85;;;4.60;99.90;;;;;;5047658;28;20041;-54
2022/12/05 09:01:08;;;;;;;20.48;10.15;;;4.60;99.90;;;;;;5048052;28;20375;-54
2022/12/05 09:03:35;;;;;;;22.30;10.65;;;4.60;99.90;;;;;;5047939;28;20055;-54
2022/12/05 09:06:18;;;;;;;25.25;11.10;;;4.60;99.90;;;;;;5047603;28;20120;-55
2022/12/05 09:08:45;;;;;;;21.40;10.30;;;4.60;99.90;;;;;;5047687;28;20045;-54
2022/12/05 09:11:14;;;;;;;16.83;9.90;;;4.60;99.90;;;;;;5047986;28;20041;-55
2022/12/05 09:13:39;;;;;;;23.48;11.07;;;2.70;99.90;;;;;;5028419;28;20049;-53
2022/12/05 09:16:10;;;;;;;23.35;10.90;;;4.60;99.90;;;;;;5045653;28;20044;-53
2022/12/05 09:18:35;;;;;;;26.60;10.52;;;4.60;99.90;;;;;;5045366;28;20077;-53
2022/12/05 09:21:10;;;;;;;23.23;11.10;;;4.60;99.90;;;;;;5045846;28;20128;-53
2022/12/05 09:23:36;;;;;;;24.15;11.10;;;4.60;99.90;;;;;;5045575;28;20837;-53
2022/12/05 09:26:04;;;;;;;32.22;11.48;;;4.50;99.90;;;;;;5045213;28;20056;-53
2022/12/05 09:28:30;;;;;;;27.25;11.02;;;4.80;99.90;;;;;;5044789;28;20777;-50
2022/12/05 09:30:57;;;;;;;18.70;9.93;;;4.60;99.90;;;;;;5045270;28;20085;-53
2022/12/05 09:33:24;;;;;;;19.92;10.52;;;4.60;99.90;;;;;;5027455;28;20049;-54
2022/12/05 09:35:49;;;;;;;21.90;11.15;;;4.60;99.90;;;;;;5045553;28;20037;-43
2022/12/05 09:38:15;;;;;;;18.45;9.40;;;4.60;99.90;;;;;;5045496;28;20099;-42
2022/12/05 09:40:42;;;;;;;22.02;10.18;;;4.60;99.90;;;;;;5045246;28;20041;-44
2022/12/05 09:43:19;;;;;;;21.92;10.55;;;4.60;99.90;;;;;;5045520;28;20053;-43
2022/12/05 09:45:54;;;;;;;29.40;11.10;;;4.60;99.90;;;;;;5045690;28;20045;-44
2022/12/05 09:48:22;;;;;;;19.15;9.57;;;4.60;99.90;;;;;;5045475;28;20522;-45
2022/12/05 09:50:53;;;;;;;27.25;10.65;;;4.60;99.90;;;;;;5045069;28;20052;-45
2022/12/05 09:53:29;;;;;;;28.48;11.60;;;4.60;99.90;;;;;;5045572;28;20056;-42
2022/12/05 09:55:55;;;;;;;26.08;11.02;;;4.60;99.90;;;;;;5045545;28;20692;-43
2022/12/05 09:58:39;;;;;;;26.90;11.20;;;5.70;99.90;;;;;;5045261;28;20041;-48
2022/12/05 10:01:22;;;;;;;29.65;11.60;;;4.70;99.90;;;;;;5045253;28;20116;-43
2022/12/05 10:03:54;;;;;;;23.25;10.45;;;4.70;99.90;;;;;;5043535;28;20166;-50
2022/12/05 10:06:28;;;;;;;22.05;11.05;;;4.70;99.90;;;;;;5041284;28;20130;-49
2022/12/05 10:09:19;;;;;;;21.77;10.95;;;4.90;99.90;;;;;;5042490;28;20037;-50
2022/12/05 10:12:16;;;;;;;21.55;10.20;;;4.60;99.90;;;;;;5044438;28;20051;-47
2022/12/05 10:14:53;;;;;;;22.85;10.45;;;4.60;99.90;;;;;;5019707;28;20049;-49
2022/12/05 10:17:35;;;;;;;31.55;11.73;;;4.60;99.90;;;;;;5043897;28;20049;-48
2022/12/05 10:20:13;;;;;;;24.13;9.50;;;4.60;99.90;;;;;;5043572;28;20127;-50
2022/12/05 10:23:11;;;;;;;27.15;10.73;;;4.60;99.90;;;;;;5044148;28;20056;-56
2022/12/05 10:25:38;;;;;;;21.33;9.93;;;4.70;99.90;;;;;;5044007;28;20049;-51
2022/12/05 10:28:14;;;;;;;20.58;9.43;;;3.50;99.90;;;;;;5043914;28;20052;-49
2022/12/05 10:30:41;;;;;;;27.98;10.95;;;4.50;99.90;;;;;;5043694;28;20057;-51
2022/12/05 10:33:29;;;;;;;19.60;10.13;;;4.60;99.90;;;;;;5044084;28;20635;-50
2022/12/05 10:35:55;;;;;;;20.17;9.48;;;4.60;99.90;;;;;;5044039;28;20483;-51
2022/12/05 10:38:29;;;;;;;23.13;10.50;;;4.50;99.90;;;;;;5044103;28;20049;-51
2022/12/05 10:40:59;;;;;;;19.77;9.55;;;4.60;99.90;;;;;;5026050;28;20057;-50
2022/12/05 10:43:27;;;;;;;15.98;8.35;;;4.70;99.90;;;;;;5043991;28;20607;-47
2022/12/05 10:45:54;;;;;;;19.90;8.60;;;4.60;99.90;;;;;;5044169;28;20041;-50
2022/12/05 10:48:21;;;;;;;21.33;10.07;;;4.30;99.90;;;;;;5044099;28;20056;-49
2022/12/05 10:50:49;;;;;;;18.77;9.70;;;4.60;99.90;;;;;;5044965;28;20057;-47
2022/12/05 10:53:22;;;;;;;18.10;8.32;;;4.60;99.90;;;;;;5048159;28;20045;-47
2022/12/05 10:55:50;;;;;;;18.95;8.85;;;4.60;99.90;;;;;;5048028;28;20076;-58
2022/12/05 10:58:28;;;;;;;16.27;8.32;;;4.60;99.90;;;;;;5049768;28;20037;-63
2022/12/05 11:01:06;;;;;;;18.02;8.23;;;4.40;99.90;;;;;;5049526;28;20141;-58
2022/12/05 11:03:36;;;;;;;18.33;8.77;;;4.60;99.90;;;;;;5052254;28;20916;-60
2022/12/05 11:06:15;;;;;;;18.50;9.38;;;4.60;99.90;;;;;;5053648;28;20040;-61
2022/12/05 11:08:40;;;;;;;19.48;9.57;;;4.30;99.90;;;;;;5048228;28;20045;-47
2022/12/05 11:11:22;;;;;;;17.08;8.70;;;4.70;99.90;;;;;;5047241;28;20052;-49
2022/12/05 11:13:59;;;;;;;23.38;10.18;;;4.60;99.90;;;;;;5028142;28;20053;-50
2022/12/05 11:16:32;;;;;;;19.27;9.15;;;4.70;99.90;;;;;;5047226;28;20485;-50
2022/12/05 11:19:23;;;;;;;21.05;9.77;;;4.70;99.90;;;;;;5047007;28;20051;-51
2022/12/05 11:21:50;;;;;;;18.20;9.57;;;4.80;99.90;;;;;;5047462;28;20143;-52
2022/12/05 11:24:24;;;;;;;19.65;9.27;;;4.80;99.90;;;;;;5047368;28;20079;-48
2022/12/05 11:26:50;;;;;;;19.08;10.32;;;4.80;99.90;;;;;;5047266;28;20064;-49
2022/12/05 11:29:29;;;;;;;21.88;10.10;;;4.80;99.90;;;;;;5046852;28;20457;-47
2022/12/05 11:31:55;;;;;;;21.48;9.38;;;4.80;99.90;;;;;;5047511;28;20102;-50
2022/12/05 11:34:26;;;;;;;19.63;9.15;;;4.80;99.90;;;;;;5046836;28;20061;-50
2022/12/05 11:37:19;;;;;;;19.58;8.82;;;4.80;99.90;;;;;;5045546;28;20037;-51
2022/12/05 11:39:44;;;;;;;28.73;9.55;;;4.80;99.90;;;;;;5045499;28;20056;-52
2022/12/05 11:42:40;;;;;;;19.42;9.20;;;4.80;99.90;;;;;;5046188;28;20052;-51
2022/12/05 11:45:45;;;;;;;19.00;9.20;;;4.80;99.90;;;;;;5046796;28;20483;-46
2022/12/05 11:48:28;;;;;;;19.75;9.27;;;4.80;99.90;;;;;;5046846;28;20041;-46
2022/12/05 11:51:30;;;;;;;29.02;9.95;;;4.90;99.90;;;;;;5046991;28;20098;-46
2022/12/05 11:54:10;;;;;;;20.98;9.18;;;4.90;99.90;;;;;;5046700;28;20858;-46
2022/12/05 11:56:44;;;;;;;23.65;8.45;;;4.90;99.90;;;;;;5047067;28;20159;-45
2022/12/05 11:59:43;;;;;;;22.23;8.65;;;5.70;99.90;;;;;;5046779;28;20056;-46
2022/12/05 12:02:47;;;;;;;17.73;7.82;;;4.90;99.90;;;;;;5045914;28;20053;-46
2022/12/05 12:05:33;;;;;;;17.80;8.23;;;4.90;99.90;;;;;;5028379;28;20044;-48
2022/12/05 12:08:16;;;;;;;20.20;7.30;;;4.90;99.90;;;;;;5046462;28;20052;-49
2022/12/05 12:10:45;;;;;;;19.98;7.65;;;4.90;99.90;;;;;;5046452;28;20449;-46
2022/12/05 12:13:29;;;;;;;19.10;7.30;;;4.90;99.90;;;;;;5026631;28;20045;-50
2022/12/05 12:16:07;;;;;;;14.18;6.28;;;4.90;99.90;;;;;;5045864;28;20037;-56
2022/12/05 12:18:48;;;;;;;15.82;6.40;;;4.90;99.90;;;;;;5045920;28;20458;-51
2022/12/05 12:21:49;;;;;;;13.95;6.35;;;4.90;99.90;;;;;;5046478;28;20098;-61
2022/12/05 12:24:34;;;;;;;21.95;8.00;;;4.90;99.90;;;;;;5003354;28;20038;-52
2022/12/05 12:27:34;;;;;;;19.80;7.55;;;4.90;99.90;;;;;;5042263;28;20141;-48
2022/12/05 12:30:30;;;;;;;16.17;6.50;;;4.90;99.90;;;;;;5045291;28;20071;-49
2022/12/05 12:33:15;;;;;;;11.10;5.43;;;4.90;99.90;;;;;;5045756;28;20055;-50
2022/12/05 12:35:54;;;;;;;10.82;5.20;;;4.90;99.90;;;;;;5045721;28;20771;-56
2022/12/05 12:38:46;;;;;;;12.90;5.78;;;5.00;99.90;;;;;;5045293;28;20045;-55
2022/12/05 12:41:43;;;;;;;16.00;5.60;;;4.90;99.90;;;;;;5027501;28;20057;-65
2022/12/05 12:44:31;;;;;;;13.65;6.47;;;4.90;99.90;;;;;;5028571;28;20053;-50
2022/12/05 12:47:00;;;;;;;14.40;5.80;;;5.00;99.90;;;;;;5027571;28;20040;-58
2022/12/05 12:49:40;;;;;;;12.88;6.15;;;4.90;99.90;;;;;;5027867;28;20056;-61
2022/12/05 12:52:21;;;;;;;15.38;6.13;;;4.90;99.90;;;;;;5045662;28;20044;-58
2022/12/05 12:55:28;;;;;;;15.63;6.15;;;4.80;99.90;;;;;;5045324;28;20103;-55
2022/12/05 12:57:53;;;;;;;14.63;5.63;;;5.00;99.90;;;;;;5010225;28;20502;-52
2022/12/05 13:00:34;;;;;;;10.82;5.28;;;4.90;99.90;;;;;;5027288;28;20102;-57
2022/12/05 13:03:25;;;;;;;10.80;5.18;;;4.90;99.90;;;;;;5044957;28;20743;-62
2022/12/05 13:05:59;;;;;;;10.50;5.47;;;4.90;99.90;;;;;;5044595;28;20061;-47
2022/12/05 13:08:37;;;;;;;12.30;5.03;;;4.90;99.90;;;;;;5027361;28;20395;-56
2022/12/05 13:11:06;;;;;;;12.88;5.15;;;4.90;99.90;;;;;;5045323;28;20124;-59
2022/12/05 13:13:35;;;;;;;14.60;5.50;;;4.90;99.90;;;;;;5007971;28;20751;-58
2022/12/05 13:16:06;;;;;;;10.60;5.28;;;4.90;99.90;;;;;;5027180;28;20060;-58